createdAt,value
2023-02-23T09:33:57.383Z,100708.91
2023-02-23T09:36:00.212Z,100727.88
2023-02-23T09:38:04.572Z,100718.16
2023-02-23T09:40:07.861Z,100731.06
2023-02-23T09:42:25.605Z,100739.06
2023-02-23T09:44:37.159Z,100736.38
2023-02-23T09:46:53.823Z,100747.91
2023-02-23T09:49:00.429Z,100754.22
2023-02-23T09:51:08.744Z,100754.88
2023-02-23T09:53:38.228Z,100749.66
2023-02-23T09:55:43.679Z,100752.25
2023-02-23T09:57:48.529Z,100751.63
2023-02-23T09:59:51.088Z,100755.66
2023-02-23T10:02:15.548Z,100738.63
2023-02-23T10:04:31.348Z,100740.78
2023-02-23T10:06:34.712Z,100748.38
2023-02-23T10:09:06.487Z,100747.75
2023-02-23T10:11:12.196Z,100757.59
2023-02-23T10:13:40.131Z,100761.84
2023-02-23T10:16:03.891Z,100750.41
2023-02-23T10:18:09.566Z,100760.38
2023-02-23T10:20:26.992Z,100750.09
2023-02-23T10:22:29.944Z,100753.59
2023-02-23T10:24:41.688Z,100742.59
2023-02-23T10:26:50.663Z,100754.91
2023-02-23T10:28:57.456Z,100750.91
2023-02-23T10:31:00.784Z,100760.06
2023-02-23T10:33:37.271Z,100749.91
2023-02-23T10:35:39.883Z,100740.75
2023-02-23T10:37:42.642Z,100733.97
2023-02-23T10:39:45.038Z,100727.75
2023-02-23T10:41:47.684Z,100731.44
2023-02-23T10:43:50.516Z,100732.28
2023-02-23T10:45:53.365Z,100717.88
2023-02-23T10:48:02.005Z,100726.19
2023-02-23T10:50:06.594Z,100722.63
2023-02-23T10:52:13.754Z,100716.78
2023-02-23T10:54:43.150Z,100708.72
2023-02-23T10:56:47.084Z,100711.25
2023-02-23T10:58:55.671Z,100696.50
2023-02-23T11:00:59.381Z,100700.19
2023-02-23T11:03:03.378Z,100697.16
2023-02-23T11:05:08.079Z,100700.28
2023-02-23T11:07:21.170Z,100696.19
2023-02-23T11:09:44.584Z,100689.09
2023-02-23T11:12:02.903Z,100695.13
2023-02-23T11:14:17.320Z,100683.78
2023-02-23T11:16:37.852Z,100680.63
2023-02-23T11:18:49.688Z,100691.66
2023-02-23T11:20:52.457Z,100679.16
2023-02-23T11:22:59.031Z,100678.69
2023-02-23T11:25:22.154Z,100688.94
2023-02-23T11:27:26.353Z,100677.19
2023-02-23T11:29:37.950Z,100682.69
2023-02-23T11:31:47.004Z,100675.94
2023-02-23T11:33:50.737Z,100669.72
2023-02-23T11:36:00.962Z,100671.66
2023-02-23T11:38:21.743Z,100668.88
2023-02-23T11:40:26.152Z,100671.59
2023-02-23T11:42:33.835Z,100672.09
2023-02-23T11:44:36.134Z,100668.97
2023-02-23T11:46:39.839Z,100666.59
2023-02-23T11:48:49.354Z,100663.22
2023-02-23T11:50:53.141Z,100662.66
2023-02-23T11:53:04.821Z,100660.69
2023-02-23T11:55:15.871Z,100662.31
2023-02-23T11:57:24.035Z,100669.16
2023-02-23T11:59:41.300Z,100655.56
2023-02-23T12:01:48.138Z,100670.22
2023-02-23T12:03:57.141Z,100668.81
2023-02-23T12:05:59.740Z,100663.91
2023-02-23T12:08:12.759Z,100654.19
2023-02-23T12:10:27.219Z,100657.50
2023-02-23T12:12:35.742Z,100653.53
2023-02-23T12:14:50.071Z,100656.78
2023-02-23T12:17:00.212Z,100649.47
2023-02-23T12:19:38.072Z,100644.97
2023-02-23T12:22:04.315Z,100636.31
2023-02-23T12:24:34.211Z,100634.13
2023-02-23T12:26:54.747Z,100625.69
2023-02-23T12:29:23.152Z,100616.47
2023-02-23T12:31:58.332Z,100621.94
2023-02-23T12:34:12.754Z,100614.25
2023-02-23T12:36:47.736Z,100615.91
2023-02-23T12:38:57.563Z,100609.16
2023-02-23T12:41:06.780Z,100604.00
2023-02-23T12:43:27.108Z,100600.69
2023-02-23T12:45:38.650Z,100605.44
2023-02-23T12:47:59.804Z,100604.94
2023-02-23T12:50:20.407Z,100601.97
2023-02-23T12:52:30.936Z,100598.19
2023-02-23T12:54:33.271Z,100601.41
2023-02-23T12:57:04.658Z,100601.12
2023-02-23T12:59:46.480Z,100591.41
2023-02-23T13:02:01.720Z,100592.13
2023-02-23T13:04:27.049Z,100587.09
2023-02-23T13:06:55.527Z,100593.88
2023-02-23T13:09:06.099Z,100588.81
2023-02-23T13:11:11.132Z,100582.31
2023-02-23T13:13:44.680Z,100578.50
2023-02-23T13:15:52.689Z,100576.75
2023-02-23T13:18:02.697Z,100570.94
2023-02-23T13:20:33.749Z,100565.56
2023-02-23T13:22:54.789Z,100572.41
2023-02-23T13:25:04.601Z,100575.34
2023-02-23T13:27:20.487Z,100579.22
2023-02-23T13:29:41.440Z,100577.78
2023-02-23T13:31:45.040Z,100572.47
2023-02-23T13:33:49.516Z,100573.47
2023-02-23T13:35:52.555Z,100569.53
2023-02-23T13:38:10.078Z,100569.63
2023-02-23T13:40:31.106Z,100570.88
2023-02-23T13:42:45.253Z,100567.72
2023-02-23T13:45:18.433Z,100559.84
2023-02-23T13:47:33.329Z,100566.13
2023-02-23T13:49:56.830Z,100566.34
2023-02-23T13:52:14.251Z,100561.09
2023-02-23T13:54:18.969Z,100570.81
2023-02-23T13:56:24.055Z,100550.84
2023-02-23T13:58:32.200Z,100565.50
2023-02-23T14:00:34.865Z,100556.13
2023-02-23T14:02:41.313Z,100562.09
2023-02-23T14:04:43.842Z,100547.50
2023-02-23T14:06:56.665Z,100546.16
2023-02-23T14:09:08.960Z,100544.59
2023-02-23T14:11:35.748Z,100552.75
2023-02-23T14:13:57.441Z,100549.56
2023-02-23T14:16:14.548Z,100548.44
2023-02-23T14:18:22.637Z,100546.59
2023-02-23T14:20:39.233Z,100544.03
2023-02-23T14:23:19.382Z,100536.81
2023-02-23T14:25:33.656Z,100534.34
2023-02-23T14:27:44.423Z,100538.16
2023-02-23T14:30:12.009Z,100534.53
2023-02-23T14:32:14.381Z,100542.06
2023-02-23T14:34:22.870Z,100529.94
2023-02-23T14:36:29.073Z,100535.13
2023-02-23T14:38:47.531Z,100535.13
2023-02-23T14:40:53.094Z,100540.09
2023-02-23T14:42:58.741Z,100538.28
2023-02-23T14:45:16.392Z,100531.66
2023-02-23T14:47:22.240Z,100530.62
2023-02-23T14:49:28.067Z,100531.66
2023-02-23T14:51:42.298Z,100524.59
2023-02-23T14:53:44.749Z,100522.22
2023-02-23T14:55:48.686Z,100522.94
2023-02-23T14:57:52.545Z,100533.81
2023-02-23T15:00:02.126Z,100520.03
2023-02-23T15:02:21.113Z,100512.19
2023-02-23T15:04:27.244Z,100516.09
2023-02-23T15:06:29.873Z,100508.44
2023-02-23T15:08:40.510Z,100499.00
2023-02-23T15:10:45.386Z,100498.41
2023-02-23T15:12:48.332Z,100489.16
2023-02-23T15:14:51.109Z,100485.69
2023-02-23T15:16:56.714Z,100482.06
2023-02-23T15:19:36.005Z,100479.25
2023-02-23T15:21:40.575Z,100482.91
2023-02-23T15:23:48.691Z,100480.78
2023-02-23T15:25:52.824Z,100480.53
2023-02-23T15:27:56.175Z,100464.03
2023-02-23T15:29:58.564Z,100472.69
2023-02-23T15:32:19.577Z,100472.81
2023-02-23T15:34:27.953Z,100468.28
2023-02-23T15:36:34.794Z,100457.72
2023-02-23T15:38:44.881Z,100456.19
2023-02-23T15:40:50.547Z,100454.84
2023-02-23T15:43:00.935Z,100453.66
2023-02-23T15:45:17.073Z,100448.44
2023-02-23T15:47:23.227Z,100452.31
2023-02-23T15:49:33.183Z,100454.09
2023-02-23T15:51:48.773Z,100447.84
2023-02-23T15:53:52.150Z,100451.13
2023-02-23T15:56:03.738Z,100453.41
2023-02-23T15:58:21.966Z,100454.22
2023-02-23T16:00:33.168Z,100451.97
2023-02-23T16:02:37.153Z,100449.00
2023-02-23T16:04:48.923Z,100451.38
2023-02-23T16:07:05.909Z,100453.06
2023-02-23T16:09:20.966Z,100447.31
2023-02-23T16:11:23.796Z,100443.38
2023-02-23T16:13:27.729Z,100459.47
2023-02-23T16:15:35.657Z,100449.47
2023-02-23T16:17:56.242Z,100449.47
2023-02-23T16:20:08.042Z,100453.44
2023-02-23T16:22:20.663Z,100438.25
2023-02-23T16:24:29.518Z,100443.00
2023-02-23T16:26:47.008Z,100447.25
2023-02-23T16:28:56.338Z,100442.19
2023-02-23T16:31:06.067Z,100444.47
2023-02-23T16:33:09.000Z,100451.72
2023-02-23T16:35:18.856Z,100445.88
2023-02-23T16:37:26.201Z,100455.47
2023-02-23T16:39:31.924Z,100447.94
2023-02-23T16:41:37.715Z,100452.66
2023-02-23T16:43:40.358Z,100440.41
2023-02-23T16:45:43.530Z,100443.50
2023-02-23T16:47:48.603Z,100454.66
2023-02-23T16:49:52.381Z,100445.34
2023-02-23T16:51:56.209Z,100442.28
2023-02-23T16:53:59.182Z,100450.13
2023-02-23T16:56:02.004Z,100449.97
2023-02-23T16:58:10.763Z,100444.13
2023-02-23T17:00:20.996Z,100453.69
2023-02-23T17:02:24.327Z,100450.56
2023-02-23T17:04:27.531Z,100451.16
2023-02-23T17:06:30.852Z,100448.62
2023-02-23T17:08:36.678Z,100437.50
2023-02-23T17:10:41.915Z,100440.94
2023-02-23T17:12:47.895Z,100433.87
2023-02-23T17:14:51.192Z,100432.44
2023-02-23T17:16:54.416Z,100429.03
2023-02-23T17:18:59.661Z,100418.97
2023-02-23T17:21:08.942Z,100421.03
2023-02-23T17:23:12.221Z,100427.03
2023-02-23T17:25:16.220Z,100427.03
2023-02-23T17:27:19.196Z,100424.13
2023-02-23T17:29:27.061Z,100437.66
2023-02-23T17:31:32.161Z,100441.94
2023-02-23T17:33:37.408Z,100438.66
2023-02-23T17:35:42.023Z,100436.03
2023-02-23T17:37:45.795Z,100439.41
2023-02-23T17:39:51.334Z,100430.03
2023-02-23T17:41:54.306Z,100442.81
2023-02-23T17:43:58.211Z,100441.00
2023-02-23T17:46:01.713Z,100446.25
2023-02-23T17:48:05.493Z,100445.56
2023-02-23T17:50:11.225Z,100449.72
2023-02-23T17:52:14.202Z,100449.53
2023-02-23T17:54:17.458Z,100445.72
2023-02-23T17:56:21.674Z,100440.56
2023-02-23T17:58:25.162Z,100441.75
2023-02-23T18:00:29.189Z,100440.81
2023-02-23T18:02:33.535Z,100430.69
2023-02-23T18:04:36.422Z,100425.84
2023-02-23T18:06:39.339Z,100422.09
2023-02-23T18:08:43.424Z,100427.06
2023-02-23T18:10:55.119Z,100421.28
2023-02-23T18:12:58.592Z,100420.84
2023-02-23T18:15:02.323Z,100406.06
2023-02-23T18:17:06.798Z,100419.97
2023-02-23T18:19:11.949Z,100410.56
2023-02-23T18:21:21.089Z,100409.69
2023-02-23T18:23:26.802Z,100410.47
2023-02-23T18:25:32.939Z,100405.31
2023-02-23T18:27:37.102Z,100409.25
2023-02-23T18:29:41.735Z,100409.84
2023-02-23T18:31:49.136Z,100416.16
2023-02-23T18:33:53.505Z,100406.31
2023-02-23T18:35:57.191Z,100398.56
2023-02-23T18:38:02.204Z,100397.81
2023-02-23T18:40:06.172Z,100388.97
2023-02-23T18:42:09.696Z,100390.81
2023-02-23T18:44:16.038Z,100384.44
2023-02-23T18:46:20.819Z,100388.69
2023-02-23T18:48:24.690Z,100390.59
2023-02-23T18:50:29.143Z,100389.13
2023-02-23T18:52:34.154Z,100389.44
2023-02-23T18:54:39.082Z,100387.53
2023-02-23T18:56:43.513Z,100382.06
2023-02-23T18:58:52.147Z,100381.06
2023-02-23T19:00:55.695Z,100379.16
2023-02-23T19:02:59.209Z,100379.44
2023-02-23T19:05:04.780Z,100377.78
2023-02-23T19:07:09.261Z,100380.22
2023-02-23T19:09:18.867Z,100381.69
2023-02-23T19:11:26.064Z,100377.44
2023-02-23T19:13:30.726Z,100380.06
2023-02-23T19:15:35.733Z,100375.69
2023-02-23T19:17:40.340Z,100373.94
2023-02-23T19:19:45.257Z,100375.47
2023-02-23T19:21:49.832Z,100374.31
2023-02-23T19:24:05.270Z,100375.00
2023-02-23T19:26:08.578Z,100373.41
2023-02-23T19:28:13.498Z,100383.53
2023-02-23T19:30:17.021Z,100384.75
2023-02-23T19:32:24.359Z,100375.00
2023-02-23T19:34:28.010Z,100380.63
2023-02-23T19:36:35.506Z,100379.69
2023-02-23T19:38:46.758Z,100384.16
2023-02-23T19:40:50.536Z,100379.37
2023-02-23T19:42:54.404Z,100376.69
2023-02-23T19:44:57.585Z,100370.38
2023-02-23T19:47:01.458Z,100375.78
2023-02-23T19:49:06.120Z,100366.37
2023-02-23T19:51:14.272Z,100367.47
2023-02-23T19:53:18.104Z,100383.34
2023-02-23T19:55:22.642Z,100370.72
2023-02-23T19:57:26.084Z,100363.41
2023-02-23T19:59:32.334Z,100368.44
2023-02-23T20:01:38.363Z,100372.37
2023-02-23T20:03:43.449Z,100372.22
2023-02-23T20:05:48.119Z,100372.56
2023-02-23T20:07:52.503Z,100364.03
2023-02-23T20:09:56.689Z,100361.66
2023-02-23T20:12:00.795Z,100364.34
2023-02-23T20:14:05.644Z,100361.81
2023-02-23T20:16:12.800Z,100353.66
2023-02-23T20:18:21.151Z,100352.37
2023-02-23T20:20:26.396Z,100356.97
2023-02-23T20:22:29.649Z,100348.63
2023-02-23T20:24:33.741Z,100350.13
2023-02-23T20:26:39.207Z,100353.50
2023-02-23T20:28:43.629Z,100352.44
2023-02-23T20:30:49.094Z,100337.78
2023-02-23T20:32:53.211Z,100342.00
2023-02-23T20:35:01.549Z,100333.69
2023-02-23T20:37:05.258Z,100335.34
2023-02-23T20:39:10.564Z,100330.19
2023-02-23T20:41:15.275Z,100325.44
2023-02-23T20:43:19.267Z,100328.06
2023-02-23T20:45:26.297Z,100323.12
2023-02-23T20:47:30.073Z,100322.84
2023-02-23T20:49:33.179Z,100319.84
2023-02-23T20:51:41.121Z,100326.47
2023-02-23T20:53:47.193Z,100319.25
2023-02-23T20:55:50.610Z,100320.38
2023-02-23T20:57:56.051Z,100328.63
2023-02-23T21:00:01.629Z,100326.38
2023-02-23T21:02:07.830Z,100318.09
2023-02-23T21:04:13.474Z,100325.16
2023-02-23T21:06:19.933Z,100328.69
2023-02-23T21:08:23.489Z,100330.00
2023-02-23T21:10:30.328Z,100338.22
2023-02-23T21:12:34.634Z,100338.37
2023-02-23T21:14:37.858Z,100341.06
2023-02-23T21:16:46.769Z,100333.78
2023-02-23T21:19:04.459Z,100341.44
2023-02-23T21:21:10.139Z,100343.81
2023-02-23T21:23:13.785Z,100346.66
2023-02-23T21:25:22.456Z,100343.81
2023-02-23T21:27:25.649Z,100354.81
2023-02-23T21:29:29.624Z,100345.03
2023-02-23T21:31:33.123Z,100333.84
2023-02-23T21:33:38.598Z,100331.72
2023-02-23T21:35:41.213Z,100333.16
2023-02-23T21:37:44.599Z,100331.53
2023-02-23T21:39:49.718Z,100326.69
2023-02-23T21:41:52.439Z,100324.00
2023-02-23T21:43:55.315Z,100329.84
2023-02-23T21:45:58.187Z,100331.53
2023-02-23T21:48:01.014Z,100330.34
2023-02-23T21:50:04.285Z,100330.59
2023-02-23T21:52:07.318Z,100318.41
2023-02-23T21:54:11.342Z,100316.19
2023-02-23T21:56:21.220Z,100330.47
2023-02-23T21:58:23.621Z,100321.09
2023-02-23T22:00:28.254Z,100323.53
2023-02-23T22:02:31.799Z,100320.47
2023-02-23T22:04:36.205Z,100317.84
2023-02-23T22:06:43.858Z,100318.87
2023-02-23T22:08:50.030Z,100305.47
2023-02-23T22:10:52.635Z,100306.66
2023-02-23T22:12:56.338Z,100295.94
2023-02-23T22:15:02.337Z,100299.72
2023-02-23T22:17:06.394Z,100308.13
2023-02-23T22:19:09.093Z,100301.28
2023-02-23T22:21:12.779Z,100302.25
2023-02-23T22:23:15.116Z,100296.06
2023-02-23T22:25:19.724Z,100297.19
2023-02-23T22:27:22.455Z,100293.81
2023-02-23T22:29:26.192Z,100292.34
2023-02-23T22:31:28.937Z,100286.12
2023-02-23T22:33:31.853Z,100288.75
2023-02-23T22:35:34.321Z,100292.75
2023-02-23T22:37:36.767Z,100290.38
2023-02-23T22:39:41.827Z,100287.84
2023-02-23T22:41:46.306Z,100289.38
2023-02-23T22:43:48.882Z,100285.50
2023-02-23T22:45:55.692Z,100281.47
2023-02-23T22:48:01.620Z,100284.56
2023-02-23T22:50:06.869Z,100271.94
2023-02-23T22:52:09.518Z,100279.97
2023-02-23T22:54:13.273Z,100276.78
2023-02-23T22:56:15.631Z,100288.13
2023-02-23T22:58:20.268Z,100272.38
